EHVK Airport Information

Runway Information
Runway 06L Length 9922 ft width 148 ft
Elevation 71 ft Threshold 444 ft Heading 58
Runway 24R Length 9922 ft Width 148 ft
Elevation 64 ft Threshold 444 ft Heading 238
Runway 06R Length 9931 ft width 74 ft
Elevation 72 ft Threshold 446 ft Heading 58
Runway 24L Length 9931 ft Width 74 ft
Elevation 65 ft Threshold 446 ft Heading 238
Airport Frequencies
Type APP Name RAPCON SOU Frequency 123.175 MHZ
Type GND Name GND Frequency 38.677 MHZ
Type TWR Name TWR Frequency 133.425 MHZ
Airport Navaids
Type TACAN Name Volkel Frequency 108300 KHZ
Airport Weather Information & NOTAM
ADDS - METARS form results

(1931 UTC 20 April 2021)
Data provider http://aviationweather.gov/metar/data/
 
METAR text: EHVK 201925Z AUTO 35004KT 9999 NCD 12/05 Q1016 BLU
Conditions at: EHVK (VOLKEL RNLAFB , NL) observed 1925 UTC 20 April 2021
Temperature: 12.0°C (54°F)
Dewpoint: 5.0°C (41°F) [RH = 62%]
Pressure (altimeter): 30.00 inches Hg (1016.0 mb)
Winds: from the N (350 degrees) at 5 MPH (4 knots; 2.1 m/s)
Visibility: 6 or more miles (10+ km)
Ceiling: at least 12,000 feet AGL
Clouds: sky clear below 12,000 feet AGL
Weather: no significant weather observed at this time

METAR text: EHVK 201855Z AUTO 34002KT 9999 NCD 13/05 Q1016 BLU
Conditions at: EHVK (VOLKEL RNLAFB , NL) observed 1855 UTC 20 April 2021
Temperature: 13.0°C (55°F)
Dewpoint: 5.0°C (41°F) [RH = 58%]
Pressure (altimeter): 30.00 inches Hg (1016.0 mb)
Winds: from the NNW (340 degrees) at 2 MPH (2 knots; 1.0 m/s)
Visibility: 6 or more miles (10+ km)
Ceiling: at least 12,000 feet AGL
Clouds: sky clear below 12,000 feet AGL
Weather: no significant weather observed at this time

Forecast for: EHVK (VOLKEL RNLAFB , NL)
Text: TAF EHVK 201640Z 2017/2105 34004KT CAVOK
Forecast period: 1700 UTC 20 April 2021 to 0500 UTC 21 April 2021
Forecast type: FROM: standard forecast or significant change
Winds: from the NNW (340 degrees) at 5 MPH (4 knots; 2.1 m/s)
Visibility: 6 or more miles (10+ km)
Ceiling: unknown
Clouds: missing
Weather: NSW  (no significant weather)
Text: PROB40 2100/2105 3000 BR
Forecast period: 0000 to 0500 UTC 21 April 2021
Forecast type: PROBABLE: 40 percent likelihood of the following during this time
Visibility: 1.86 miles (2.99 km)
Ceiling: unknown
Clouds: missing
Weather: BR  (mist)